createdAt,value
2019-04-01T00:01:48.885Z,101702.94
2019-04-01T00:07:45.626Z,101699.34
2019-04-01T00:10:34.481Z,101696.11
2019-04-01T00:13:23.296Z,101696.70
2019-04-01T00:16:12.109Z,101692.17
2019-04-01T00:19:03.320Z,101689.67
2019-04-01T00:21:51.488Z,101689.19
2019-04-01T00:24:40.341Z,101687.56
2019-04-01T00:27:29.160Z,101685.55
2019-04-01T00:30:18.034Z,101679.55
2019-04-01T00:33:06.863Z,101680.93
2019-04-01T00:35:48.745Z,101680.95
2019-04-01T00:38:37.632Z,101678.73
2019-04-01T00:41:26.470Z,101683.67
2019-04-01T00:44:15.361Z,101684.23
2019-04-01T00:47:04.231Z,101690.89
2019-04-01T00:49:53.035Z,101684.45
2019-04-01T00:52:41.878Z,101683.76
2019-04-01T00:55:49.735Z,101685.55
2019-04-01T00:58:38.560Z,101691.45
2019-04-01T01:01:46.496Z,101684.19
2019-04-01T01:04:35.312Z,101681.95
2019-04-01T01:07:24.214Z,101684.24
2019-04-01T01:13:41.397Z,101684.22
2019-04-01T01:16:30.221Z,101681.98
2019-04-01T01:22:34.984Z,101677.33
2019-04-01T01:25:23.831Z,101683.69
2019-04-01T01:28:12.730Z,101677.49
2019-04-01T01:31:20.607Z,101676.19
2019-04-01T01:34:09.457Z,101684.42
2019-04-01T01:36:51.227Z,101675.39
2019-04-01T01:39:40.078Z,101677.49
2019-04-01T01:42:28.906Z,101674.60
2019-04-01T01:45:17.812Z,101673.13
2019-04-01T01:48:25.754Z,101667.48
2019-04-01T01:51:14.607Z,101670.73
2019-04-01T01:54:03.425Z,101664.95
2019-04-01T01:56:52.254Z,101665.27
2019-04-01T01:59:41.083Z,101663.16
2019-04-01T02:02:29.939Z,101664.85
2019-04-01T02:05:18.836Z,101666.39
2019-04-01T02:08:07.767Z,101662.36
2019-04-01T02:11:15.622Z,101670.33
2019-04-01T02:14:04.441Z,101661.16
2019-04-01T02:16:53.292Z,101658.34
2019-04-01T02:19:42.125Z,101660.34
2019-04-01T02:22:30.931Z,101656.82
2019-04-01T02:25:19.768Z,101657.36
2019-04-01T02:28:08.583Z,101656.81
2019-04-01T02:30:57.476Z,101653.44
2019-04-01T02:33:46.285Z,101654.78
2019-04-01T02:36:29.357Z,101650.59
2019-04-01T02:39:18.179Z,101653.16
2019-04-01T02:42:06.996Z,101654.03
2019-04-01T02:44:55.805Z,101652.52
2019-04-01T02:47:44.671Z,101652.67
2019-04-01T02:53:48.072Z,101651.60
2019-04-01T02:56:36.938Z,101644.90
2019-04-01T02:59:25.739Z,101643.66
2019-04-01T03:02:14.576Z,101636.70
2019-04-01T03:05:03.404Z,101636.41
2019-04-01T03:07:52.224Z,101634.61
2019-04-01T03:10:41.069Z,101630.09
2019-04-01T03:13:29.890Z,101627.17
2019-04-01T03:16:18.723Z,101634.86
2019-04-01T03:19:26.663Z,101633.55
2019-04-01T03:22:15.564Z,101639.17
2019-04-01T03:28:32.981Z,101631.73
2019-04-01T03:31:21.795Z,101632.56
2019-04-01T03:34:10.653Z,101630.80
2019-04-01T03:36:52.115Z,101627.94
2019-04-01T03:39:40.961Z,101631.28
2019-04-01T03:42:29.797Z,101631.45
2019-04-01T03:45:18.701Z,101625.01
2019-04-01T03:48:07.547Z,101628.05
2019-04-01T03:51:15.482Z,101628.33
2019-04-01T03:54:04.307Z,101627.12
2019-04-01T03:57:12.169Z,101628.03
2019-04-01T04:00:01.033Z,101619.28
2019-04-01T04:02:49.836Z,101629.06
2019-04-01T04:05:38.667Z,101628.44
2019-04-01T04:08:27.494Z,101627.27
2019-04-01T04:14:11.032Z,101629.69
2019-04-01T04:16:59.851Z,101625.66
2019-04-01T04:23:04.098Z,101622.87
2019-04-01T04:25:55.999Z,101626.72
2019-04-01T04:28:44.835Z,101620.26
2019-04-01T04:31:52.687Z,101614.80
2019-04-01T04:35:00.567Z,101620.33
2019-04-01T04:37:42.586Z,101620.94
2019-04-01T04:40:31.440Z,101622.73
2019-04-01T04:43:20.262Z,101619.31
2019-04-01T04:46:09.170Z,101622.01
2019-04-01T04:48:58.011Z,101615.03
2019-04-01T04:51:46.853Z,101611.02
2019-04-01T04:54:35.802Z,101610.16
2019-04-01T04:57:24.599Z,101616.20
2019-04-01T05:00:13.484Z,101616.80
2019-04-01T05:03:02.349Z,101620.05
2019-04-01T05:09:00.578Z,101620.66
2019-04-01T05:11:49.427Z,101622.33
2019-04-01T05:14:38.245Z,101617.81
2019-04-01T05:17:27.158Z,101619.38
2019-04-01T05:20:16.659Z,101623.36
2019-04-01T05:35:46.152Z,101626.42
2019-04-01T05:38:28.171Z,101628.41
2019-04-01T05:41:17.166Z,101625.05
2019-04-01T05:44:06.054Z,101631.94
2019-04-01T05:46:54.895Z,101626.81
2019-04-01T05:49:43.796Z,101630.17
2019-04-01T05:52:51.747Z,101633.20
2019-04-01T05:55:40.625Z,101632.78
2019-04-01T06:01:43.997Z,101620.14
2019-04-01T06:04:32.821Z,101625.66
2019-04-01T06:07:21.656Z,101622.73
2019-04-01T06:13:18.527Z,101630.84
2019-04-01T06:16:26.505Z,101623.78
2019-04-01T06:19:15.364Z,101627.02
2019-04-01T06:22:04.257Z,101625.41
2019-04-01T06:24:53.109Z,101631.73
2019-04-01T06:27:41.937Z,101627.22
2019-04-01T06:30:30.891Z,101622.10
2019-04-01T06:33:19.776Z,101621.84
2019-04-01T06:36:08.695Z,101628.80
2019-04-01T06:38:51.025Z,101626.68
2019-04-01T06:41:39.921Z,101619.67
2019-04-01T06:44:28.778Z,101622.28
2019-04-01T06:47:17.629Z,101626.42
2019-04-01T06:53:34.924Z,101625.20
2019-04-01T06:56:23.780Z,101633.09
2019-04-01T06:59:12.625Z,101629.08
2019-04-01T07:02:01.528Z,101626.92
2019-04-01T07:04:50.372Z,101624.41
2019-04-01T07:10:50.288Z,101630.56
2019-04-01T07:13:40.185Z,101620.37
2019-04-01T07:16:29.752Z,101626.63
2019-04-01T07:19:18.662Z,101623.75
2019-04-01T07:22:07.543Z,101618.28
2019-04-01T07:24:56.408Z,101617.99
2019-04-01T07:27:45.293Z,101617.02
2019-04-01T07:30:53.215Z,101624.48
2019-04-01T07:33:42.102Z,101625.08
2019-04-01T07:36:31.012Z,101621.50
2019-04-01T07:39:13.096Z,101620.30
2019-04-01T07:42:02.042Z,101611.89
2019-04-01T07:44:50.872Z,101611.80
2019-04-01T07:47:39.713Z,101615.01
2019-04-01T07:50:28.538Z,101615.24
2019-04-01T07:53:17.444Z,101612.23
2019-04-01T07:56:06.350Z,101609.23
2019-04-01T07:58:55.271Z,101605.00
2019-04-01T08:01:44.336Z,101608.23
2019-04-01T08:04:33.246Z,101600.23
2019-04-01T08:10:50.206Z,101601.34
2019-04-01T08:13:38.964Z,101594.06
2019-04-01T08:16:27.880Z,101587.25
2019-04-01T08:19:16.786Z,101585.38
2019-04-01T08:22:05.615Z,101592.04
2019-04-01T08:24:54.474Z,101591.27
2019-04-01T08:27:43.314Z,101580.59
2019-04-01T08:30:32.333Z,101588.55
2019-04-01T08:33:21.182Z,101580.06
2019-04-01T08:39:18.037Z,101582.37
2019-04-01T08:42:06.935Z,101579.25
2019-04-01T08:44:55.774Z,101579.73
2019-04-01T08:47:44.670Z,101581.05
2019-04-01T08:50:33.520Z,101572.67
2019-04-01T08:53:22.485Z,101568.56
2019-04-01T08:56:11.397Z,101570.59
2019-04-01T08:59:00.286Z,101570.61
2019-04-01T09:01:49.124Z,101568.05
2019-04-01T09:04:38.116Z,101572.08
2019-04-01T09:07:26.981Z,101566.75
2019-04-01T09:10:36.684Z,101557.66
2019-04-01T09:19:55.574Z,101558.47
2019-04-01T09:22:44.399Z,101545.11
2019-04-01T09:25:33.258Z,101549.78
2019-04-01T09:28:41.165Z,101538.61
2019-04-01T09:31:30.107Z,101537.50
2019-04-01T09:34:18.934Z,101536.17
2019-04-01T09:37:07.791Z,101534.25
2019-04-01T09:39:49.537Z,101535.14
2019-04-01T09:42:38.541Z,101533.62
2019-04-01T09:45:27.473Z,101535.17
2019-04-01T09:48:16.317Z,101526.06
2019-04-01T09:51:05.332Z,101524.44
2019-04-01T09:53:54.151Z,101517.08
2019-04-01T09:57:16.256Z,101515.15
2019-04-01T09:59:52.644Z,101517.60
2019-04-01T10:02:41.490Z,101517.31
2019-04-01T10:05:30.326Z,101507.91
2019-04-01T10:08:42.317Z,101508.35
2019-04-01T10:11:28.816Z,101503.69
2019-04-01T10:14:17.674Z,101501.34
2019-04-01T10:17:06.486Z,101495.75
2019-04-01T10:19:55.324Z,101486.22
2019-04-01T10:22:44.207Z,101489.30
2019-04-01T10:25:33.099Z,101478.43
2019-04-01T10:28:22.050Z,101473.22
2019-04-01T10:31:10.970Z,101471.66
2019-04-01T10:33:59.793Z,101466.08
2019-04-01T10:36:48.714Z,101457.44
2019-04-01T10:39:37.641Z,101453.96
2019-04-01T10:42:19.583Z,101454.20
2019-04-01T10:45:28.785Z,101452.80
2019-04-01T10:48:17.683Z,101439.52
2019-04-01T10:51:06.624Z,101435.92
2019-04-01T10:54:14.645Z,101428.18
2019-04-01T10:57:03.600Z,101434.86
2019-04-01T10:59:52.533Z,101425.75
2019-04-01T11:02:41.410Z,101427.86
2019-04-01T11:05:30.391Z,101430.12
2019-04-01T11:08:19.281Z,101421.16
2019-04-01T11:11:08.244Z,101413.91
2019-04-01T11:13:57.162Z,101407.61
2019-04-01T11:16:46.231Z,101403.66
2019-04-01T11:19:36.626Z,101408.28
2019-04-01T11:22:25.552Z,101405.45
2019-04-01T11:25:14.537Z,101400.69
2019-04-01T11:28:03.477Z,101395.78
2019-04-01T11:30:52.388Z,101393.66
2019-04-01T11:33:41.270Z,101390.45
2019-04-01T11:36:30.177Z,101380.69
2019-04-01T11:39:19.054Z,101381.95
2019-04-01T11:42:01.523Z,101385.94
2019-04-01T11:44:50.721Z,101380.78
2019-04-01T11:47:39.661Z,101377.62
2019-04-01T11:50:28.692Z,101377.41
2019-04-01T11:53:17.617Z,101362.18
2019-04-01T11:56:06.470Z,101368.36
2019-04-01T11:58:56.891Z,101360.80
2019-04-01T12:01:47.311Z,101347.46
2019-04-01T12:04:36.422Z,101359.02
2019-04-01T12:07:25.372Z,101353.20
2019-04-01T12:13:42.494Z,101334.94
2019-04-01T12:16:31.433Z,101333.48
2019-04-01T12:19:20.630Z,101330.48
2019-04-01T12:22:10.493Z,101316.77
2019-04-01T12:25:00.253Z,101316.86
2019-04-01T12:27:49.244Z,101313.19
2019-04-01T12:30:38.078Z,101302.02
2019-04-01T12:33:26.933Z,101302.87
2019-04-01T12:36:15.769Z,101296.61
2019-04-01T12:42:12.679Z,101292.16
2019-04-01T12:45:01.538Z,101290.86
2019-04-01T12:47:50.372Z,101288.75
2019-04-01T12:50:39.238Z,101281.26
2019-04-01T12:53:28.059Z,101269.72
2019-04-01T12:56:16.911Z,101270.89
2019-04-01T12:59:05.804Z,101267.59
2019-04-01T13:01:54.695Z,101261.92
2019-04-01T13:05:02.555Z,101258.70
2019-04-01T13:07:54.179Z,101253.59
2019-04-01T13:10:41.975Z,101241.44
2019-04-01T13:13:30.797Z,101243.20
2019-04-01T13:16:38.751Z,101237.98
2019-04-01T13:19:27.557Z,101227.81
2019-04-01T13:22:16.392Z,101219.77
2019-04-01T13:25:05.893Z,101219.77
2019-04-01T13:27:57.140Z,101211.83
2019-04-01T13:34:15.335Z,101206.08
2019-04-01T13:37:04.224Z,101197.75
2019-04-01T13:39:53.149Z,101190.41
2019-04-01T13:42:43.327Z,101186.17
2019-04-01T13:45:32.768Z,101186.67
2019-04-01T13:48:21.574Z,101181.70
2019-04-01T13:51:30.249Z,101165.80
2019-04-01T13:54:20.171Z,101169.59
2019-04-01T13:57:09.019Z,101160.62
2019-04-01T13:59:57.851Z,101162.11
2019-04-01T14:02:46.695Z,101150.12
2019-04-01T14:05:35.619Z,101150.81
2019-04-01T14:08:24.449Z,101147.80
2019-04-01T14:11:13.297Z,101151.52
2019-04-01T14:14:21.140Z,101138.30
2019-04-01T14:17:09.999Z,101132.62
2019-04-01T14:19:58.942Z,101129.61
2019-04-01T14:22:48.993Z,101131.57
2019-04-01T14:25:38.332Z,101128.23
2019-04-01T14:28:27.169Z,101118.77
2019-04-01T14:31:19.147Z,101111.30
2019-04-01T14:34:10.776Z,101107.98
2019-04-01T14:36:57.355Z,101108.14
2019-04-01T14:39:46.220Z,101103.50
2019-04-01T14:42:28.639Z,101098.22
2019-04-01T14:45:17.735Z,101102.72
2019-04-01T14:48:08.482Z,101092.86
2019-04-01T14:50:57.225Z,101084.75
2019-04-01T14:53:46.155Z,101080.27
2019-04-01T14:56:34.962Z,101076.44
2019-04-01T14:59:42.835Z,101078.11
2019-04-01T15:02:31.763Z,101073.91
2019-04-01T15:05:39.716Z,101067.05
2019-04-01T15:08:28.554Z,101059.58
2019-04-01T15:11:17.476Z,101061.91
2019-04-01T15:14:06.444Z,101057.98
2019-04-01T15:16:55.281Z,101052.11
2019-04-01T15:19:44.114Z,101041.77
2019-04-01T15:22:32.977Z,101048.94
2019-04-01T15:25:21.869Z,101040.41
2019-04-01T15:28:10.710Z,101035.52
2019-04-01T15:30:59.552Z,101029.53
2019-04-01T15:33:48.389Z,101019.32
2019-04-01T15:36:56.363Z,101019.28
2019-04-01T15:39:47.188Z,101010.75
2019-04-01T15:42:28.640Z,101007.55
2019-04-01T15:45:17.459Z,101006.92
2019-04-01T15:48:25.414Z,100999.23
2019-04-01T15:51:14.261Z,100995.02
2019-04-01T15:54:04.313Z,100999.51
2019-04-01T15:56:53.675Z,100991.25
2019-04-01T15:59:42.546Z,100982.98
2019-04-01T16:02:31.393Z,100978.52
2019-04-01T16:05:20.307Z,100980.28
2019-04-01T16:08:09.136Z,100976.37
2019-04-01T16:10:57.982Z,100973.23
2019-04-01T16:13:46.899Z,100965.20
2019-04-01T16:16:36.277Z,100964.52
2019-04-01T16:19:26.349Z,100965.66
2019-04-01T16:22:15.204Z,100962.89
2019-04-01T16:28:32.752Z,100958.09
2019-04-01T16:31:21.599Z,100955.64
2019-04-01T16:34:10.619Z,100953.68
2019-04-01T16:36:59.778Z,100957.27
2019-04-01T16:39:48.901Z,100953.98
2019-04-01T16:42:32.609Z,100944.27
2019-04-01T16:45:21.502Z,100942.69
2019-04-01T16:48:10.360Z,100944.27
2019-04-01T16:50:59.254Z,100944.38
2019-04-01T16:53:48.114Z,100945.33
2019-04-01T16:56:37.932Z,100950.49
2019-04-01T16:59:28.266Z,100940.98
2019-04-01T17:02:18.671Z,100945.02
2019-04-01T17:08:24.162Z,100938.14
2019-04-01T17:11:13.099Z,100934.07
2019-04-01T17:14:01.956Z,100939.41
2019-04-01T17:16:50.882Z,100934.70
2019-04-01T17:19:47.087Z,100931.00
2019-04-01T17:22:36.047Z,100923.76
2019-04-01T17:25:26.132Z,100923.27
2019-04-01T17:28:15.609Z,100929.44
2019-04-01T17:31:04.589Z,100925.59
2019-04-01T17:33:53.422Z,100914.37
2019-04-01T17:36:42.271Z,100918.05
2019-04-01T17:39:31.182Z,100913.16
2019-04-01T17:42:13.017Z,100918.20
2019-04-01T17:45:22.821Z,100918.31
2019-04-01T17:48:30.763Z,100921.00
2019-04-01T17:51:19.608Z,100921.97
2019-04-01T17:54:08.482Z,100922.46
2019-04-01T17:56:57.407Z,100923.42
2019-04-01T18:00:05.350Z,100918.66
2019-04-01T18:02:54.322Z,100916.49
2019-04-01T18:05:43.433Z,100917.83
2019-04-01T18:08:51.425Z,100913.94
2019-04-01T18:11:40.307Z,100913.05
2019-04-01T18:14:29.236Z,100912.98
2019-04-01T18:17:18.668Z,100908.52
2019-04-01T18:20:08.957Z,100910.60
2019-04-01T18:22:57.799Z,100910.52
2019-04-01T18:25:46.665Z,100908.72
2019-04-01T18:28:35.582Z,100908.59
2019-04-01T18:31:24.458Z,100913.64
2019-04-01T18:34:13.349Z,100913.99
2019-04-01T18:37:02.264Z,100913.81
2019-04-01T18:40:11.777Z,100916.72
2019-04-01T18:42:54.042Z,100917.45
2019-04-01T18:45:42.945Z,100915.52
2019-04-01T18:48:31.940Z,100915.41
2019-04-01T18:54:28.577Z,100917.44
2019-04-01T18:57:17.401Z,100923.00
2019-04-01T19:00:27.178Z,100921.18
2019-04-01T19:03:16.039Z,100924.26
2019-04-01T19:09:09.132Z,100920.23
2019-04-01T19:12:03.023Z,100917.63
2019-04-01T19:14:40.687Z,100921.48
2019-04-01T19:17:29.585Z,100912.19
2019-04-01T19:20:18.945Z,100910.26
2019-04-01T19:23:26.904Z,100906.31
2019-04-01T19:26:15.781Z,100910.05
2019-04-01T19:29:04.712Z,100901.33
2019-04-01T19:32:14.766Z,100908.37
2019-04-01T19:35:04.934Z,100911.78
2019-04-01T19:37:54.015Z,100908.42
2019-04-01T19:40:42.858Z,100913.29
2019-04-01T19:43:24.936Z,100916.86
2019-04-01T19:46:13.880Z,100914.14
2019-04-01T19:49:05.040Z,100914.72
2019-04-01T19:51:53.288Z,100917.97
2019-04-01T19:54:42.150Z,100918.64
2019-04-01T19:57:31.065Z,100920.12
2019-04-01T20:00:27.676Z,100915.42
2019-04-01T20:03:10.790Z,100907.67
2019-04-01T20:05:59.622Z,100919.00
2019-04-01T20:08:49.804Z,100919.52
2019-04-01T20:11:39.141Z,100915.05
2019-04-01T20:17:42.864Z,100913.75
2019-04-01T20:20:31.687Z,100915.45
2019-04-01T20:23:20.639Z,100918.53
2019-04-01T20:26:09.461Z,100920.59
2019-04-01T20:29:17.355Z,100917.48
2019-04-01T20:32:16.749Z,100914.08
2019-04-01T20:34:58.562Z,100910.14
2019-04-01T20:37:47.379Z,100908.30
2019-04-01T20:40:36.226Z,100908.18
2019-04-01T20:43:25.083Z,100904.70
2019-04-01T20:46:13.951Z,100900.19
2019-04-01T20:49:02.775Z,100903.05
2019-04-01T20:51:51.704Z,100894.97
2019-04-01T20:54:40.508Z,100894.91
2019-04-01T20:57:29.389Z,100898.70
2019-04-01T21:03:18.110Z,100888.56
2019-04-01T21:06:06.984Z,100883.76
2019-04-01T21:08:55.822Z,100886.67
2019-04-01T21:11:44.663Z,100880.61
2019-04-01T21:14:33.491Z,100881.39
2019-04-01T21:17:23.127Z,100878.34
2019-04-01T21:20:13.623Z,100873.89
2019-04-01T21:23:03.760Z,100868.63
2019-04-01T21:25:52.618Z,100861.22
2019-04-01T21:28:41.479Z,100864.64
2019-04-01T21:31:30.310Z,100864.17
2019-04-01T21:34:19.188Z,100865.68
2019-04-01T21:37:08.038Z,100861.81
2019-04-01T21:39:56.904Z,100858.39
2019-04-01T21:42:45.823Z,100859.65
2019-04-01T21:45:34.720Z,100852.23
2019-04-01T21:48:23.559Z,100855.14
2019-04-01T21:51:12.493Z,100851.94
2019-04-01T21:54:01.330Z,100851.50
2019-04-01T21:57:09.283Z,100851.89
2019-04-01T21:59:58.141Z,100850.16
2019-04-01T22:02:47.059Z,100850.37
2019-04-01T22:05:36.148Z,100853.98
2019-04-01T22:08:25.052Z,100841.36
2019-04-01T22:11:13.908Z,100845.17
2019-04-01T22:14:02.784Z,100848.16
2019-04-01T22:16:51.672Z,100843.15
2019-04-01T22:19:41.182Z,100841.31
2019-04-01T22:22:31.099Z,100839.78
2019-04-01T22:25:19.960Z,100840.88
2019-04-01T22:28:08.806Z,100833.25
2019-04-01T22:30:57.646Z,100825.78
2019-04-01T22:33:46.489Z,100827.23
2019-04-01T22:36:35.317Z,100821.51
2019-04-01T22:39:27.415Z,100817.78
2019-04-01T22:42:14.733Z,100803.36
2019-04-01T22:44:56.907Z,100801.42
2019-04-01T22:47:45.838Z,100814.80
2019-04-01T22:50:34.659Z,100799.63
2019-04-01T22:53:23.503Z,100797.84
2019-04-01T22:56:12.358Z,100795.57
2019-04-01T22:59:20.299Z,100797.51
2019-04-01T23:02:09.459Z,100786.26
2019-04-01T23:05:17.310Z,100786.25
2019-04-01T23:08:06.244Z,100786.13
2019-04-01T23:10:56.295Z,100782.73
2019-04-01T23:13:45.663Z,100777.91
2019-04-01T23:16:34.503Z,100780.40
2019-04-01T23:19:23.361Z,100773.67
2019-04-01T23:22:12.203Z,100771.30
2019-04-01T23:25:01.020Z,100763.02
2019-04-01T23:27:49.849Z,100765.61
2019-04-01T23:30:38.770Z,100760.47
2019-04-01T23:33:27.608Z,100760.73
2019-04-01T23:36:16.456Z,100762.80
2019-04-01T23:39:26.185Z,100759.09
2019-04-01T23:42:15.038Z,100754.97
2019-04-01T23:44:56.798Z,100747.77
2019-04-01T23:47:45.710Z,100747.06
2019-04-01T23:56:57.671Z,100740.86
2019-04-01T23:59:47.243Z,100732.72
